createdAt,value
2023-05-30T00:00:50.489Z,13.81
2023-05-30T00:06:06.724Z,17.09
2023-05-30T00:11:10.934Z,17.65
2023-05-30T00:16:15.376Z,15.90
2023-05-30T00:21:19.108Z,14.87
2023-05-30T00:26:22.119Z,14.20
2023-05-30T00:31:25.286Z,13.69
2023-05-30T00:36:28.336Z,13.30
2023-05-30T00:41:31.303Z,13.00
2023-05-30T00:46:34.216Z,12.78
2023-05-30T00:51:37.444Z,12.58
2023-05-30T00:56:40.298Z,13.60
2023-05-30T01:01:44.606Z,16.64
2023-05-30T01:06:47.943Z,17.16
2023-05-30T01:12:06.062Z,15.37
2023-05-30T01:17:19.452Z,14.28
2023-05-30T01:22:34.376Z,13.60
2023-05-30T01:28:06.072Z,13.05
2023-05-30T01:33:10.003Z,12.59
2023-05-30T01:38:14.002Z,12.30
2023-05-30T01:43:50.440Z,12.08
2023-05-30T01:49:18.301Z,13.46
2023-05-30T01:54:22.849Z,16.58
2023-05-30T01:59:27.383Z,16.93
2023-05-30T02:04:31.623Z,15.11
2023-05-30T02:09:34.417Z,14.07
2023-05-30T02:14:37.650Z,13.42
2023-05-30T02:19:40.697Z,12.89
2023-05-30T02:24:43.482Z,13.57
2023-05-30T02:29:46.211Z,16.25
2023-05-30T02:34:49.185Z,16.86
2023-05-30T02:39:51.905Z,15.01
2023-05-30T02:44:54.745Z,13.82
2023-05-30T02:49:57.596Z,13.10
2023-05-30T02:55:00.381Z,12.59
2023-05-30T03:00:03.718Z,13.44
2023-05-30T03:05:07.367Z,16.13
2023-05-30T03:10:10.583Z,17.43
2023-05-30T03:15:13.513Z,16.98
2023-05-30T03:20:17.335Z,14.93
2023-05-30T03:25:21.351Z,13.76
2023-05-30T03:30:27.819Z,13.02
2023-05-30T03:35:31.055Z,13.60
2023-05-30T03:40:34.687Z,16.22
2023-05-30T03:45:37.417Z,17.61
2023-05-30T03:50:40.134Z,17.12
2023-05-30T03:55:42.894Z,15.31
2023-05-30T04:00:45.639Z,14.32
2023-05-30T04:05:50.546Z,13.61
2023-05-30T04:10:53.805Z,14.18
2023-05-30T04:15:56.605Z,16.80
2023-05-30T04:20:59.953Z,17.96
2023-05-30T04:26:02.987Z,16.59
2023-05-30T04:31:20.220Z,15.11
2023-05-30T04:36:24.324Z,14.19
2023-05-30T04:41:27.269Z,13.71
2023-05-30T04:46:30.906Z,14.59
2023-05-30T04:51:34.221Z,17.18
2023-05-30T04:56:37.111Z,17.66
2023-05-30T05:01:42.585Z,16.01
2023-05-30T05:06:45.507Z,14.99
2023-05-30T05:11:48.471Z,14.44
2023-05-30T05:16:51.222Z,15.09
2023-05-30T05:21:57.266Z,17.75
2023-05-30T05:27:00.172Z,18.27
2023-05-30T05:32:03.150Z,16.69
2023-05-30T05:37:06.797Z,15.84
2023-05-30T05:42:09.624Z,15.41
2023-05-30T05:47:12.433Z,16.15
2023-05-30T05:52:15.214Z,18.71
2023-05-30T05:57:17.983Z,18.55
2023-05-30T06:02:20.776Z,17.16
2023-05-30T06:07:24.629Z,16.47
2023-05-30T06:12:27.633Z,16.09
2023-05-30T06:17:31.228Z,15.89
2023-05-30T06:22:36.582Z,15.80
2023-05-30T06:27:39.384Z,15.87
2023-05-30T06:32:43.997Z,17.18
2023-05-30T06:37:47.015Z,19.39
2023-05-30T06:42:49.880Z,18.64
2023-05-30T06:47:52.738Z,18.32
2023-05-30T06:52:55.875Z,18.33
2023-05-30T06:57:58.700Z,18.40
2023-05-30T07:03:02.296Z,18.40
2023-05-30T07:08:05.420Z,18.50
2023-05-30T07:13:08.320Z,18.69
2023-05-30T07:18:11.223Z,18.83
2023-05-30T07:23:14.079Z,18.92
2023-05-30T07:28:18.409Z,19.00
2023-05-30T07:33:21.464Z,19.05
2023-05-30T07:38:24.225Z,19.17
2023-05-30T07:43:29.489Z,19.35
2023-05-30T07:48:33.105Z,19.65
2023-05-30T07:53:36.007Z,19.98
2023-05-30T07:58:38.752Z,20.25
2023-05-30T08:03:41.741Z,20.54
2023-05-30T08:08:44.899Z,20.74
2023-05-30T08:13:48.892Z,20.88
2023-05-30T08:18:52.512Z,21.11
2023-05-30T08:23:56.591Z,21.41
2023-05-30T08:29:01.061Z,21.59
2023-05-30T08:34:05.101Z,21.67
2023-05-30T08:39:14.933Z,21.74
2023-05-30T08:44:18.146Z,21.90
2023-05-30T08:49:26.036Z,22.06
2023-05-30T08:59:42.986Z,22.40
2023-05-30T09:04:47.178Z,22.58
2023-05-30T09:09:52.347Z,22.76
2023-05-30T09:14:55.168Z,22.95
2023-05-30T09:19:58.282Z,23.11
2023-05-30T09:25:05.068Z,23.15
2023-05-30T09:30:11.802Z,23.25
2023-05-30T09:35:14.869Z,23.43
2023-05-30T09:40:18.189Z,23.64
2023-05-30T09:45:25.679Z,23.85
2023-05-30T09:50:31.851Z,24.05
2023-05-30T09:55:34.605Z,24.14
2023-05-30T10:00:37.451Z,24.32
2023-05-30T10:05:40.368Z,24.47
2023-05-30T10:10:52.761Z,24.55
2023-05-30T10:15:55.992Z,24.64
2023-05-30T10:21:01.519Z,24.60
2023-05-30T10:26:06.426Z,24.69
2023-05-30T10:31:12.826Z,24.70
2023-05-30T10:36:21.270Z,24.64
2023-05-30T10:41:36.318Z,24.83
2023-05-30T10:47:19.315Z,25.02
2023-05-30T10:52:32.715Z,25.17
2023-05-30T10:57:36.286Z,25.30
2023-05-30T11:02:40.240Z,25.50
2023-05-30T11:07:44.532Z,25.67
2023-05-30T11:12:49.304Z,25.88
2023-05-30T11:17:53.652Z,25.98
2023-05-30T11:23:03.333Z,25.94
2023-05-30T11:28:07.308Z,26.01
2023-05-30T11:33:19.238Z,25.95
2023-05-30T11:39:33.064Z,25.99
2023-05-30T11:44:37.462Z,26.14
2023-05-30T11:49:42.700Z,26.30
2023-05-30T11:54:48.384Z,26.25
2023-05-30T11:59:51.316Z,26.28
2023-05-30T12:05:02.406Z,26.21
2023-05-30T12:10:06.022Z,26.15
2023-05-30T12:15:10.336Z,26.00
2023-05-30T12:20:18.436Z,26.13
2023-05-30T12:25:28.567Z,26.28
2023-05-30T12:30:36.011Z,26.44
2023-05-30T12:35:40.855Z,26.54
2023-05-30T12:40:52.083Z,26.50
2023-05-30T12:46:10.349Z,26.68
2023-05-30T12:51:15.994Z,26.86
2023-05-30T12:56:24.361Z,26.97
2023-05-30T13:01:31.280Z,26.98
2023-05-30T13:06:34.075Z,26.83
2023-05-30T13:11:37.010Z,26.65
2023-05-30T13:16:40.172Z,26.65
2023-05-30T13:21:44.830Z,26.66
2023-05-30T13:26:47.678Z,26.43
2023-05-30T13:31:50.640Z,26.20
2023-05-30T13:36:53.742Z,26.24
2023-05-30T13:41:56.774Z,26.30
2023-05-30T13:46:59.639Z,26.40
2023-05-30T13:52:05.200Z,26.42
2023-05-30T13:57:08.962Z,26.16
2023-05-30T14:02:11.777Z,25.83
2023-05-30T14:07:15.838Z,25.74
2023-05-30T14:12:18.784Z,25.90
2023-05-30T14:17:21.552Z,25.98
2023-05-30T14:22:24.277Z,25.90
2023-05-30T14:27:27.041Z,25.88
2023-05-30T14:32:30.314Z,25.90
2023-05-30T14:37:33.054Z,26.13
2023-05-30T14:42:36.176Z,26.31
2023-05-30T14:47:38.984Z,26.19
2023-05-30T14:52:41.731Z,25.92
2023-05-30T14:57:44.487Z,25.53
2023-05-30T15:02:47.348Z,25.45
2023-05-30T15:07:51.243Z,25.68
2023-05-30T15:12:54.072Z,25.72
2023-05-30T15:17:57.227Z,25.59
2023-05-30T15:23:00.022Z,25.60
2023-05-30T15:28:03.181Z,25.52
2023-05-30T15:33:06.094Z,25.47
2023-05-30T15:38:08.992Z,25.61
2023-05-30T15:43:12.323Z,25.59
2023-05-30T15:48:15.234Z,25.45
2023-05-30T15:53:17.939Z,25.48
2023-05-30T15:58:20.945Z,25.49
2023-05-30T16:03:23.718Z,25.33
2023-05-30T16:08:26.534Z,25.03
2023-05-30T16:13:29.294Z,24.76
2023-05-30T16:18:32.067Z,24.50
2023-05-30T16:23:35.038Z,24.30
2023-05-30T16:28:37.819Z,24.14
2023-05-30T16:33:40.612Z,24.00
2023-05-30T16:38:43.409Z,23.89
2023-05-30T16:43:48.035Z,23.71
2023-05-30T16:48:50.853Z,23.56
2023-05-30T16:53:56.272Z,23.36
2023-05-30T16:59:00.540Z,23.09
2023-05-30T17:04:03.677Z,22.81
2023-05-30T17:09:10.154Z,22.59
2023-05-30T17:14:14.691Z,22.45
2023-05-30T17:19:28.528Z,22.39
2023-05-30T17:24:32.179Z,22.16
2023-05-30T17:29:37.116Z,21.94
2023-05-30T17:34:39.901Z,21.75
2023-05-30T17:39:42.807Z,21.53
2023-05-30T17:44:45.571Z,21.37
2023-05-30T17:49:48.303Z,21.19
2023-05-30T17:54:53.713Z,20.98
2023-05-30T17:59:57.138Z,20.81
2023-05-30T18:05:03.066Z,20.66
2023-05-30T18:10:06.183Z,20.44
2023-05-30T18:15:10.286Z,20.21
2023-05-30T18:20:13.521Z,20.00
2023-05-30T18:25:16.344Z,19.87
2023-05-30T18:30:19.096Z,19.69
2023-05-30T18:35:21.955Z,19.55
2023-05-30T18:40:24.972Z,19.44
2023-05-30T18:45:27.791Z,19.32
2023-05-30T18:50:30.793Z,19.21
2023-05-30T18:55:33.754Z,19.07
2023-05-30T19:00:36.497Z,18.96
2023-05-30T19:05:40.236Z,18.82
2023-05-30T19:10:43.259Z,18.65
2023-05-30T19:15:46.118Z,18.44
2023-05-30T19:20:50.685Z,18.29
2023-05-30T19:25:54.483Z,18.15
2023-05-30T19:30:57.196Z,18.02
2023-05-30T19:36:00.181Z,17.88
2023-05-30T19:41:03.983Z,17.72
2023-05-30T19:46:08.534Z,17.63
2023-05-30T19:51:11.613Z,17.53
2023-05-30T19:56:14.389Z,17.43
2023-05-30T20:01:17.328Z,17.26
2023-05-30T20:06:20.739Z,17.11
2023-05-30T20:11:23.537Z,16.99
2023-05-30T20:16:26.502Z,16.90
2023-05-30T20:21:29.566Z,16.78
2023-05-30T20:26:33.201Z,16.65
2023-05-30T20:31:36.289Z,16.55
2023-05-30T20:36:39.135Z,16.45
2023-05-30T20:41:41.981Z,16.35
2023-05-30T20:46:45.230Z,16.25
2023-05-30T20:51:48.236Z,16.13
2023-05-30T20:56:51.097Z,16.01
2023-05-30T21:01:53.918Z,15.85
2023-05-30T21:06:56.782Z,15.73
2023-05-30T21:11:59.551Z,15.65
2023-05-30T21:17:02.435Z,15.57
2023-05-30T21:22:05.809Z,15.44
2023-05-30T21:27:08.607Z,15.33
2023-05-30T21:32:11.466Z,15.18
2023-05-30T21:37:14.333Z,15.05
2023-05-30T21:42:17.173Z,14.94
2023-05-30T21:47:19.904Z,14.82
2023-05-30T21:52:27.201Z,14.72
2023-05-30T21:57:30.331Z,14.63
2023-05-30T22:02:33.105Z,14.54
2023-05-30T22:07:35.950Z,14.45
2023-05-30T22:12:38.829Z,14.33
2023-05-30T22:17:41.597Z,14.23
2023-05-30T22:22:44.684Z,14.13
2023-05-30T22:27:47.609Z,14.02
2023-05-30T22:32:50.643Z,13.93
2023-05-30T22:37:53.439Z,13.85
2023-05-30T22:42:56.410Z,13.74
2023-05-30T22:47:59.484Z,13.64
2023-05-30T22:53:02.369Z,13.53
2023-05-30T22:58:05.127Z,13.46
2023-05-30T23:03:13.106Z,13.38
2023-05-30T23:08:16.088Z,13.29
2023-05-30T23:13:20.119Z,13.21
2023-05-30T23:18:22.849Z,13.16
2023-05-30T23:23:25.661Z,13.11
2023-05-30T23:28:28.488Z,13.05
2023-05-30T23:33:31.746Z,12.96
2023-05-30T23:38:34.574Z,12.86
2023-05-30T23:43:38.255Z,12.77
2023-05-30T23:48:41.084Z,12.71
2023-05-30T23:53:44.539Z,12.65
2023-05-30T23:58:47.340Z,12.58
